sensor_id;sensor_type;location;lat;lon;timestamp;pressure;altitude;pressure_sealevel;temperature;humidity
76044;BME280;64740;34.694;33.088;2024-02-04T00:04:15;1043.6;;;15.5;52.4
76044;BME280;64740;34.694;33.088;2024-02-04T00:09:45;1043.6;;;15.4;52.3
76044;BME280;64740;34.694;33.088;2024-02-04T00:14:37;1043.6;;;15.4;52.2
76044;BME280;64740;34.694;33.088;2024-02-04T00:19:45;1043.5;;;15.4;52
76044;BME280;64740;34.694;33.088;2024-02-04T00:24:23;1043.5;;;15.4;51.5
76044;BME280;64740;34.694;33.088;2024-02-04T00:29:45;1043.5;;;15.5;51.8
76044;BME280;64740;34.694;33.088;2024-02-04T00:34:33;1043.5;;;15.6;51.5
76044;BME280;64740;34.694;33.088;2024-02-04T00:39:37;1043.5;;;15.7;51.1
76044;BME280;64740;34.694;33.088;2024-02-04T00:44:23;1043.5;;;15.7;51
76044;BME280;64740;34.694;33.088;2024-02-04T00:49:33;1043.6;;;15.7;51.1
76044;BME280;64740;34.694;33.088;2024-02-04T00:54:45;1043.6;;;15.7;51.1
76044;BME280;64740;34.694;33.088;2024-02-04T00:59:21;1043.5;;;15.7;51
76044;BME280;64740;34.694;33.088;2024-02-04T01:04:25;1043.6;;;15.8;51.2
76044;BME280;64740;34.694;33.088;2024-02-04T01:09:45;1043.6;;;15.8;51.4
76044;BME280;64740;34.694;33.088;2024-02-04T01:14:45;1043.5;;;15.7;51
76044;BME280;64740;34.694;33.088;2024-02-04T01:19:37;1043.5;;;15.7;51.2
76044;BME280;64740;34.694;33.088;2024-02-04T01:24:25;1043.4;;;15.6;51.7
76044;BME280;64740;34.694;33.088;2024-02-04T01:29:15;1043.4;;;15.6;51.4
76044;BME280;64740;34.694;33.088;2024-02-04T01:34:27;1043.3;;;15.5;51.3
76044;BME280;64740;34.694;33.088;2024-02-04T01:39:23;1043.3;;;15.5;51.2
76044;BME280;64740;34.694;33.088;2024-02-04T01:44:29;1043.4;;;15.4;52
76044;BME280;64740;34.694;33.088;2024-02-04T01:49:23;1043.3;;;15.4;51.5
76044;BME280;64740;34.694;33.088;2024-02-04T01:54:45;1043.3;;;15.4;51.9
76044;BME280;64740;34.694;33.088;2024-02-04T01:59:24;1043.3;;;15.3;51.8
76044;BME280;64740;34.694;33.088;2024-02-04T02:04:46;1043.3;;;15.3;51.8
76044;BME280;64740;34.694;33.088;2024-02-04T02:09:15;1043.4;;;15.3;52
76044;BME280;64740;34.694;33.088;2024-02-04T02:14:38;1043.4;;;15.4;52
76044;BME280;64740;34.694;33.088;2024-02-04T02:19:12;1043.4;;;15.4;51.9
76044;BME280;64740;34.694;33.088;2024-02-04T02:24:34;1043.4;;;15.3;51.4
76044;BME280;64740;34.694;33.088;2024-02-04T02:29:46;1043.4;;;15.3;51
76044;BME280;64740;34.694;33.088;2024-02-04T02:34:37;1043.4;;;15.3;51.3
76044;BME280;64740;34.694;33.088;2024-02-04T02:39:47;1043.4;;;15.3;51.6
76044;BME280;64740;34.694;33.088;2024-02-04T02:44:45;1043.4;;;15.4;52
76044;BME280;64740;34.694;33.088;2024-02-04T02:49:46;1043.4;;;15.5;51.6
76044;BME280;64740;34.694;33.088;2024-02-04T02:54:38;1043.4;;;15.6;51.2
76044;BME280;64740;34.694;33.088;2024-02-04T02:59:17;1043.4;;;15.6;51.2
76044;BME280;64740;34.694;33.088;2024-02-04T03:04:07;1043.4;;;15.7;51.6
76044;BME280;64740;34.694;33.088;2024-02-04T03:09:15;1043.4;;;15.7;51.7
76044;BME280;64740;34.694;33.088;2024-02-04T03:14:16;1043.4;;;15.7;51.3
76044;BME280;64740;34.694;33.088;2024-02-04T03:19:15;1043.4;;;15.8;51.5
76044;BME280;64740;34.694;33.088;2024-02-04T03:24:07;1043.4;;;15.8;51.4
76044;BME280;64740;34.694;33.088;2024-02-04T03:29:17;1043.4;;;15.8;51
76044;BME280;64740;34.694;33.088;2024-02-04T03:34:07;1043.4;;;15.8;50.6
76044;BME280;64740;34.694;33.088;2024-02-04T03:39:45;1043.5;;;15.8;50.6
76044;BME280;64740;34.694;33.088;2024-02-04T03:44:29;1043.5;;;15.7;51
76044;BME280;64740;34.694;33.088;2024-02-04T03:49:09;1043.4;;;15.7;51
76044;BME280;64740;34.694;33.088;2024-02-04T03:54:15;1043.5;;;15.7;50.5
76044;BME280;64740;34.694;33.088;2024-02-04T03:59:17;1043.5;;;15.6;51.1
76044;BME280;64740;34.694;33.088;2024-02-04T04:04:39;1043.5;;;15.6;50.8
76044;BME280;64740;34.694;33.088;2024-02-04T04:09:34;1043.5;;;15.7;51
76044;BME280;64740;34.694;33.088;2024-02-04T04:14:28;1043.5;;;15.6;50.8
76044;BME280;64740;34.694;33.088;2024-02-04T04:19:38;1043.5;;;15.6;50.8
76044;BME280;64740;34.694;33.088;2024-02-04T04:24:45;1043.6;;;15.6;51
76044;BME280;64740;34.694;33.088;2024-02-04T04:29:27;1043.6;;;15.7;50.8
76044;BME280;64740;34.694;33.088;2024-02-04T04:34:17;1043.6;;;15.7;50.5
76044;BME280;64740;34.694;33.088;2024-02-04T04:39:08;1043.6;;;15.8;50.8
76044;BME280;64740;34.694;33.088;2024-02-04T04:44:08;1043.6;;;15.8;50.1
76044;BME280;64740;34.694;33.088;2024-02-04T04:49:07;1043.6;;;15.8;50
76044;BME280;64740;34.694;33.088;2024-02-04T04:54:08;1043.6;;;15.9;50
76044;BME280;64740;34.694;33.088;2024-02-04T04:59:19;1043.7;;;16;49.7
76044;BME280;64740;34.694;33.088;2024-02-04T05:04:38;1043.7;;;16;49.3
76044;BME280;64740;34.694;33.088;2024-02-04T05:09:10;1043.8;;;15.9;49.6
76044;BME280;64740;34.694;33.088;2024-02-04T05:14:46;1043.8;;;15.9;50.3
76044;BME280;64740;34.694;33.088;2024-02-04T05:19:46;1043.8;;;15.9;50.2
76044;BME280;64740;34.694;33.088;2024-02-04T05:24:16;1043.8;;;15.9;50.5
76044;BME280;64740;34.694;33.088;2024-02-04T05:29:46;1043.9;;;15.9;50.5
76044;BME280;64740;34.694;33.088;2024-02-04T05:34:34;1043.9;;;15.9;50.6
76044;BME280;64740;34.694;33.088;2024-02-04T05:39:38;1044;;;16.1;50.3
76044;BME280;64740;34.694;33.088;2024-02-04T05:44:34;1044;;;16.1;50.1
76044;BME280;64740;34.694;33.088;2024-02-04T05:49:46;1044;;;16.1;50
76044;BME280;64740;34.694;33.088;2024-02-04T05:54:38;1044.1;;;16.2;50.5
76044;BME280;64740;34.694;33.088;2024-02-04T05:59:46;1044.1;;;16.3;50.5
76044;BME280;64740;34.694;33.088;2024-02-04T06:04:08;1044.2;;;16.4;50.2
76044;BME280;64740;34.694;33.088;2024-02-04T06:09:38;1044.2;;;16.5;49.6
76044;BME280;64740;34.694;33.088;2024-02-04T06:14:16;1044.3;;;16.7;49.4
76044;BME280;64740;34.694;33.088;2024-02-04T06:19:16;1044.3;;;16.7;49.1
76044;BME280;64740;34.694;33.088;2024-02-04T06:24:08;1044.3;;;16.8;49.1
76044;BME280;64740;34.694;33.088;2024-02-04T06:29:16;1044.3;;;16.9;48.8
76044;BME280;64740;34.694;33.088;2024-02-04T06:34:08;1044.3;;;17;48.6
76044;BME280;64740;34.694;33.088;2024-02-04T06:39:46;1044.3;;;17.1;48.3
76044;BME280;64740;34.694;33.088;2024-02-04T06:44:36;1044.4;;;17.3;48.2
76044;BME280;64740;34.694;33.088;2024-02-04T06:49:32;1044.4;;;17.5;47.8
76044;BME280;64740;34.694;33.088;2024-02-04T06:54:46;1044.4;;;17.7;47.6
76044;BME280;64740;34.694;33.088;2024-02-04T06:59:24;1044.4;;;17.9;47.4
76044;BME280;64740;34.694;33.088;2024-02-04T07:04:46;1044.4;;;18.1;47.9
76044;BME280;64740;34.694;33.088;2024-02-04T07:09:46;1044.4;;;18.4;47.1
76044;BME280;64740;34.694;33.088;2024-02-04T07:14:26;1044.4;;;18.6;46.8
76044;BME280;64740;34.694;33.088;2024-02-04T07:19:26;1044.4;;;18.7;45.3
76044;BME280;64740;34.694;33.088;2024-02-04T07:24:34;1044.4;;;18.8;44.1
76044;BME280;64740;34.694;33.088;2024-02-04T07:29:38;1044.4;;;18.9;43.4
76044;BME280;64740;34.694;33.088;2024-02-04T07:34:46;1044.4;;;19;43.6
76044;BME280;64740;34.694;33.088;2024-02-04T07:39:28;1044.5;;;19;44.7
76044;BME280;64740;34.694;33.088;2024-02-04T07:44:36;1044.4;;;19.1;44.8
76044;BME280;64740;34.694;33.088;2024-02-04T07:49:20;1044.4;;;19.1;44.9
76044;BME280;64740;34.694;33.088;2024-02-04T07:54:24;1044.4;;;19.1;46.1
76044;BME280;64740;34.694;33.088;2024-02-04T07:59:38;1044.5;;;19.2;46
76044;BME280;64740;34.694;33.088;2024-02-04T08:04:24;1044.5;;;19.2;46
76044;BME280;64740;34.694;33.088;2024-02-04T08:09:08;1044.5;;;19.4;44
76044;BME280;64740;34.694;33.088;2024-02-04T08:14:24;1044.5;;;19.5;45.6
76044;BME280;64740;34.694;33.088;2024-02-04T08:19:38;1044.5;;;19.6;46.7
76044;BME280;64740;34.694;33.088;2024-02-04T08:24:16;1044.5;;;19.5;45.6
76044;BME280;64740;34.694;33.088;2024-02-04T08:29:46;1044.5;;;19.5;43.9
76044;BME280;64740;34.694;33.088;2024-02-04T08:34:24;1044.5;;;19.5;43.8
76044;BME280;64740;34.694;33.088;2024-02-04T08:39:46;1044.4;;;19.6;43.5
76044;BME280;64740;34.694;33.088;2024-02-04T08:44:34;1044.4;;;19.6;44.3
76044;BME280;64740;34.694;33.088;2024-02-04T08:49:46;1044.4;;;19.7;44.3
76044;BME280;64740;34.694;33.088;2024-02-04T08:54:24;1044.3;;;19.7;44.1
76044;BME280;64740;34.694;33.088;2024-02-04T08:59:34;1044.3;;;19.8;44.6
76044;BME280;64740;34.694;33.088;2024-02-04T09:04:46;1044.2;;;20;44.3
76044;BME280;64740;34.694;33.088;2024-02-04T09:09:38;1044.2;;;20.1;43.1
76044;BME280;64740;34.694;33.088;2024-02-04T09:14:08;1044.2;;;20;42.9
76044;BME280;64740;34.694;33.088;2024-02-04T09:19:46;1044.3;;;19.9;42.9
76044;BME280;64740;34.694;33.088;2024-02-04T09:24:46;1044.2;;;19.8;42.8
76044;BME280;64740;34.694;33.088;2024-02-04T09:29:38;1044.2;;;19.7;43
76044;BME280;64740;34.694;33.088;2024-02-04T09:34:20;1044.2;;;19.7;43.2
76044;BME280;64740;34.694;33.088;2024-02-04T09:39:08;1044.2;;;19.7;43.3
76044;BME280;64740;34.694;33.088;2024-02-04T09:44:18;1044.1;;;19.6;43.4
76044;BME280;64740;34.694;33.088;2024-02-04T09:49:46;1044.2;;;19.6;43.4
76044;BME280;64740;34.694;33.088;2024-02-04T09:54:10;1044.2;;;19.5;42.9
76044;BME280;64740;34.694;33.088;2024-02-04T09:59:24;1044.1;;;18.8;43.8
76044;BME280;64740;34.694;33.088;2024-02-04T10:04:46;1044.1;;;18.2;46.4
76044;BME280;64740;34.694;33.088;2024-02-04T10:09:32;1044.1;;;17.8;48.2
76044;BME280;64740;34.694;33.088;2024-02-04T10:14:46;1044;;;17.7;48.8
76044;BME280;64740;34.694;33.088;2024-02-04T10:19:34;1043.8;;;17.9;48.6
76044;BME280;64740;34.694;33.088;2024-02-04T10:24:38;1043.8;;;18;48.4
76044;BME280;64740;34.694;33.088;2024-02-04T10:29:08;1043.8;;;18.1;47.7
76044;BME280;64740;34.694;33.088;2024-02-04T10:34:10;1043.8;;;18.1;47.6
76044;BME280;64740;34.694;33.088;2024-02-04T10:39:46;1043.7;;;18.7;46.4
76044;BME280;64740;34.694;33.088;2024-02-04T10:44:46;1043.7;;;19.3;45.3
76044;BME280;64740;34.694;33.088;2024-02-04T10:49:08;1043.6;;;19.6;44.8
76044;BME280;64740;34.694;33.088;2024-02-04T10:54:46;1043.5;;;20;43.9
76044;BME280;64740;34.694;33.088;2024-02-04T10:59:46;1043.6;;;20.4;42.7
76044;BME280;64740;34.694;33.088;2024-02-04T11:04:18;1043.5;;;20.6;42.2
76044;BME280;64740;34.694;33.088;2024-02-04T11:09:28;1043.4;;;20.7;41.9
76044;BME280;64740;34.694;33.088;2024-02-04T11:14:09;1043.2;;;21;41.6
76044;BME280;64740;34.694;33.088;2024-02-04T11:19:27;1043.1;;;21.5;40.9
76044;BME280;64740;34.694;33.088;2024-02-04T11:24:19;1043.1;;;21.9;40.4
76044;BME280;64740;34.694;33.088;2024-02-04T11:29:09;1043.1;;;22.2;40.1
76044;BME280;64740;34.694;33.088;2024-02-04T11:34:20;1043.1;;;22.5;39.3
76044;BME280;64740;34.694;33.088;2024-02-04T11:39:32;1043;;;22.8;38.8
76044;BME280;64740;34.694;33.088;2024-02-04T11:44:08;1042.9;;;23.1;38
76044;BME280;64740;34.694;33.088;2024-02-04T11:49:44;1042.9;;;23.4;37.4
76044;BME280;64740;34.694;33.088;2024-02-04T11:54:36;1042.9;;;23.7;36.9
76044;BME280;64740;34.694;33.088;2024-02-04T11:59:32;1042.8;;;23.9;35.8
76044;BME280;64740;34.694;33.088;2024-02-04T12:04:38;1042.8;;;23.9;35.2
76044;BME280;64740;34.694;33.088;2024-02-04T12:09:18;1042.8;;;24;35
76044;BME280;64740;34.694;33.088;2024-02-04T12:14:38;1042.8;;;24;34
76044;BME280;64740;34.694;33.088;2024-02-04T12:19:16;1042.8;;;24.1;33
76044;BME280;64740;34.694;33.088;2024-02-04T12:24:08;1042.8;;;24.3;31.9
76044;BME280;64740;34.694;33.088;2024-02-04T12:29:38;1042.7;;;24.5;31.8
76044;BME280;64740;34.694;33.088;2024-02-04T12:34:46;1042.7;;;24.9;31.8
76044;BME280;64740;34.694;33.088;2024-02-04T12:39:28;1042.7;;;24.9;32.5
76044;BME280;64740;34.694;33.088;2024-02-04T12:44:10;1042.8;;;24.9;31.6
76044;BME280;64740;34.694;33.088;2024-02-04T12:49:17;1042.8;;;24.8;30.7
76044;BME280;64740;34.694;33.088;2024-02-04T12:54:08;1042.8;;;24.8;31.1
76044;BME280;64740;34.694;33.088;2024-02-04T12:59:08;1042.8;;;24.9;31.5
76044;BME280;64740;34.694;33.088;2024-02-04T13:04:08;1042.8;;;25.1;31.5
76044;BME280;64740;34.694;33.088;2024-02-04T13:09:16;1042.9;;;25.1;31.3
76044;BME280;64740;34.694;33.088;2024-02-04T13:14:46;1042.9;;;25.1;31.4
76044;BME280;64740;34.694;33.088;2024-02-04T13:19:22;1042.8;;;25.1;31.3
76044;BME280;64740;34.694;33.088;2024-02-04T13:24:46;1042.9;;;25.1;31.3
76044;BME280;64740;34.694;33.088;2024-02-04T13:29:46;1042.8;;;25;31.5
76044;BME280;64740;34.694;33.088;2024-02-04T13:34:22;1042.8;;;24.9;31.5
76044;BME280;64740;34.694;33.088;2024-02-04T13:39:46;1042.7;;;24.9;31.7
76044;BME280;64740;34.694;33.088;2024-02-04T13:44:46;1042.7;;;24.8;31.6
76044;BME280;64740;34.694;33.088;2024-02-04T13:49:10;1042.7;;;24.9;31.3
76044;BME280;64740;34.694;33.088;2024-02-04T13:54:24;1042.7;;;25;31.1
76044;BME280;64740;34.694;33.088;2024-02-04T13:59:20;1042.7;;;25.1;30.8
76044;BME280;64740;34.694;33.088;2024-02-04T14:04:38;1042.7;;;24.9;30.9
76044;BME280;64740;34.694;33.088;2024-02-04T14:09:46;1042.7;;;25;30.9
76044;BME280;64740;34.694;33.088;2024-02-04T14:14:16;1042.7;;;25.2;30.9
76044;BME280;64740;34.694;33.088;2024-02-04T14:19:46;1042.7;;;25.4;30.5
76044;BME280;64740;34.694;33.088;2024-02-04T14:24:16;1042.7;;;25.8;29.9
76044;BME280;64740;34.694;33.088;2024-02-04T14:29:16;1042.7;;;25.9;29.7
76044;BME280;64740;34.694;33.088;2024-02-04T14:34:20;1042.9;;;25.9;30
76044;BME280;64740;34.694;33.088;2024-02-04T14:39:08;1042.9;;;25.5;30
76044;BME280;64740;34.694;33.088;2024-02-04T14:44:08;1043;;;24.4;30.9
76044;BME280;64740;34.694;33.088;2024-02-04T14:49:38;1043;;;23.3;32.3
76044;BME280;64740;34.694;33.088;2024-02-04T14:54:38;1043.1;;;22.5;33.4
76044;BME280;64740;34.694;33.088;2024-02-04T14:59:46;1043.2;;;21.8;34.3
76044;BME280;64740;34.694;33.088;2024-02-04T15:04:46;1043.3;;;21.3;34.9
76044;BME280;64740;34.694;33.088;2024-02-04T15:09:16;1043.4;;;20.9;35.5
76044;BME280;64740;34.694;33.088;2024-02-04T15:14:46;1043.4;;;20.6;36.1
76044;BME280;64740;34.694;33.088;2024-02-04T15:19:46;1043.4;;;20.3;36.5
76044;BME280;64740;34.694;33.088;2024-02-04T15:24:38;1043.4;;;20;36.8
76044;BME280;64740;34.694;33.088;2024-02-04T15:29:24;1043.4;;;19.8;37.1
76044;BME280;64740;34.694;33.088;2024-02-04T15:34:34;1043.5;;;19.6;37.4
76044;BME280;64740;34.694;33.088;2024-02-04T15:39:28;1043.5;;;19.4;37.7
76044;BME280;64740;34.694;33.088;2024-02-04T15:44:34;1043.5;;;19.2;38.2
76044;BME280;64740;34.694;33.088;2024-02-04T15:49:28;1043.5;;;18.4;39.4
76044;BME280;64740;34.694;33.088;2024-02-04T15:54:46;1043.6;;;17.5;42
76044;BME280;64740;34.694;33.088;2024-02-04T15:59:30;1043.7;;;17;42.9
76044;BME280;64740;34.694;33.088;2024-02-04T16:04:34;1043.8;;;16.7;44.3
76044;BME280;64740;34.694;33.088;2024-02-04T16:09:28;1043.9;;;16.4;45.3
76044;BME280;64740;34.694;33.088;2024-02-04T16:14:08;1043.9;;;16.2;46.2
76044;BME280;64740;34.694;33.088;2024-02-04T16:19:28;1043.9;;;16.1;46.8
76044;BME280;64740;34.694;33.088;2024-02-04T16:24:08;1044;;;15.9;47.5
76044;BME280;64740;34.694;33.088;2024-02-04T16:29:38;1044.1;;;15.9;47.8
76044;BME280;64740;34.694;33.088;2024-02-04T16:34:24;1044.2;;;15.8;48.1
76044;BME280;64740;34.694;33.088;2024-02-04T16:39:46;1044.2;;;15.7;48.3
76044;BME280;64740;34.694;33.088;2024-02-04T16:44:16;1044.2;;;15.7;48.4
76044;BME280;64740;34.694;33.088;2024-02-04T16:49:46;1044.3;;;15.6;48.3
76044;BME280;64740;34.694;33.088;2024-02-04T16:54:08;1044.4;;;15.6;48.3
76044;BME280;64740;34.694;33.088;2024-02-04T16:59:38;1044.4;;;15.5;48.4
76044;BME280;64740;34.694;33.088;2024-02-04T17:04:16;1044.4;;;15.5;48.5
76044;BME280;64740;34.694;33.088;2024-02-04T17:09:34;1044.4;;;15.5;48.4
76044;BME280;64740;34.694;33.088;2024-02-04T17:14:46;1044.5;;;15.4;48.4
76044;BME280;64740;34.694;33.088;2024-02-04T17:19:39;1044.4;;;15.3;48.5
76044;BME280;64740;34.694;33.088;2024-02-04T17:24:10;1044.4;;;15.3;48.3
76044;BME280;64740;34.694;33.088;2024-02-04T17:29:46;1044.5;;;15.2;48.1
76044;BME280;64740;34.694;33.088;2024-02-04T17:34:46;1044.5;;;15.2;48.2
76044;BME280;64740;34.694;33.088;2024-02-04T17:39:18;1044.4;;;15.1;48.2
76044;BME280;64740;34.694;33.088;2024-02-04T17:44:28;1044.5;;;15.1;48.2
76044;BME280;64740;34.694;33.088;2024-02-04T17:49:16;1044.5;;;15;48.1
76044;BME280;64740;34.694;33.088;2024-02-04T17:54:16;1044.5;;;15;48.1
76044;BME280;64740;34.694;33.088;2024-02-04T17:59:08;1044.5;;;14.9;48.1
76044;BME280;64740;34.694;33.088;2024-02-04T18:04:48;1044.5;;;14.9;48.1
76044;BME280;64740;34.694;33.088;2024-02-04T18:09:16;1044.5;;;14.8;48.1
76044;BME280;64740;34.694;33.088;2024-02-04T18:14:49;1044.5;;;15.2;47.4
76044;BME280;64740;34.694;33.088;2024-02-04T18:19:38;1044.5;;;15.7;46.5
76044;BME280;64740;34.694;33.088;2024-02-04T18:24:48;1044.4;;;16.1;45.6
76044;BME280;64740;34.694;33.088;2024-02-04T18:29:24;1044.4;;;16.5;45
76044;BME280;64740;34.694;33.088;2024-02-04T18:34:48;1044.4;;;16.7;44.4
76044;BME280;64740;34.694;33.088;2024-02-04T18:39:30;1044.4;;;16.9;44
76044;BME280;64740;34.694;33.088;2024-02-04T18:44:34;1044.4;;;17.1;43.7
76044;BME280;64740;34.694;33.088;2024-02-04T18:49:36;1044.4;;;17.2;43.4
76044;BME280;64740;34.694;33.088;2024-02-04T18:54:38;1044.5;;;17.2;43.3
76044;BME280;64740;34.694;33.088;2024-02-04T18:59:20;1044.5;;;17.1;43.4
76044;BME280;64740;34.694;33.088;2024-02-04T19:04:48;1044.6;;;17.1;43.3
76044;BME280;64740;34.694;33.088;2024-02-04T19:09:40;1044.6;;;17.1;43.3
76044;BME280;64740;34.694;33.088;2024-02-04T19:14:38;1044.5;;;17.1;43.4
76044;BME280;64740;34.694;33.088;2024-02-04T19:19:08;1044.5;;;17.1;43.5
76044;BME280;64740;34.694;33.088;2024-02-04T19:24:16;1044.5;;;17.1;43.5
76044;BME280;64740;34.694;33.088;2024-02-04T19:29:08;1044.5;;;17;43.6
76044;BME280;64740;34.694;33.088;2024-02-04T19:34:08;1044.5;;;17;43.8
76044;BME280;64740;34.694;33.088;2024-02-04T19:39:08;1044.5;;;16.9;43.9
76044;BME280;64740;34.694;33.088;2024-02-04T19:44:24;1044.5;;;16.9;43.9
76044;BME280;64740;34.694;33.088;2024-02-04T19:49:34;1044.5;;;16.9;44
76044;BME280;64740;34.694;33.088;2024-02-04T19:54:34;1044.4;;;16.9;44
76044;BME280;64740;34.694;33.088;2024-02-04T19:59:48;1044.3;;;16.8;44
76044;BME280;64740;34.694;33.088;2024-02-04T20:04:38;1044.3;;;16.9;43.9
76044;BME280;64740;34.694;33.088;2024-02-04T20:09:26;1044.2;;;16.9;43.9
76044;BME280;64740;34.694;33.088;2024-02-04T20:14:38;1044.2;;;16.9;43.9
76044;BME280;64740;34.694;33.088;2024-02-04T20:19:18;1044.2;;;16.9;43.8
76044;BME280;64740;34.694;33.088;2024-02-04T20:24:38;1044.2;;;16.8;43.9
76044;BME280;64740;34.694;33.088;2024-02-04T20:29:24;1044.3;;;16.8;44
76044;BME280;64740;34.694;33.088;2024-02-04T20:34:28;1044.2;;;16.7;44.1
76044;BME280;64740;34.694;33.088;2024-02-04T20:39:38;1044.2;;;16.7;44.2
76044;BME280;64740;34.694;33.088;2024-02-04T20:44:48;1044.2;;;16.7;44.3
76044;BME280;64740;34.694;33.088;2024-02-04T20:49:20;1044.2;;;16.7;44.2
76044;BME280;64740;34.694;33.088;2024-02-04T20:54:38;1044.3;;;16.8;44.2
76044;BME280;64740;34.694;33.088;2024-02-04T20:59:08;1044.2;;;16.7;44.2
76044;BME280;64740;34.694;33.088;2024-02-04T21:04:16;1044.1;;;16.7;44.3
76044;BME280;64740;34.694;33.088;2024-02-04T21:09:16;1044.1;;;16.7;44.4
76044;BME280;64740;34.694;33.088;2024-02-04T21:14:48;1044.2;;;16.6;44.6
76044;BME280;64740;34.694;33.088;2024-02-04T21:19:20;1044.2;;;16.6;44.6
76044;BME280;64740;34.694;33.088;2024-02-04T21:24:48;1044.2;;;16.6;44.7
76044;BME280;64740;34.694;33.088;2024-02-04T21:29:38;1044.1;;;16.6;44.8
76044;BME280;64740;34.694;33.088;2024-02-04T21:34:48;1044.1;;;16.5;44.9
76044;BME280;64740;34.694;33.088;2024-02-04T21:39:20;1044.1;;;16.5;45
76044;BME280;64740;34.694;33.088;2024-02-04T21:44:16;1044;;;16.5;45.1
76044;BME280;64740;34.694;33.088;2024-02-04T21:49:48;1044;;;16.5;45.1
76044;BME280;64740;34.694;33.088;2024-02-04T21:54:48;1043.9;;;16.5;45
76044;BME280;64740;34.694;33.088;2024-02-04T21:59:38;1043.8;;;16.5;44.9
76044;BME280;64740;34.694;33.088;2024-02-04T22:04:08;1043.7;;;16.5;44.7
76044;BME280;64740;34.694;33.088;2024-02-04T22:09:09;1043.7;;;16.6;44.2
76044;BME280;64740;34.694;33.088;2024-02-04T22:14:38;1043.7;;;16.6;43.9
76044;BME280;64740;34.694;33.088;2024-02-04T22:19:48;1043.8;;;16.6;43.8
76044;BME280;64740;34.694;33.088;2024-02-04T22:24:08;1043.8;;;16.6;43.9
76044;BME280;64740;34.694;33.088;2024-02-04T22:29:38;1043.8;;;16.5;43.7
76044;BME280;64740;34.694;33.088;2024-02-04T22:34:26;1043.9;;;16.5;43.5
76044;BME280;64740;34.694;33.088;2024-02-04T22:39:08;1044;;;16.5;43.4
76044;BME280;64740;34.694;33.088;2024-02-04T22:44:16;1044;;;16.5;43.6
76044;BME280;64740;34.694;33.088;2024-02-04T22:49:08;1044;;;16.5;43.6
76044;BME280;64740;34.694;33.088;2024-02-04T22:54:08;1043.9;;;16.5;43.5
76044;BME280;64740;34.694;33.088;2024-02-04T22:59:48;1043.9;;;16.5;43.5
76044;BME280;64740;34.694;33.088;2024-02-04T23:04:39;1043.9;;;16.5;43.4
76044;BME280;64740;34.694;33.088;2024-02-04T23:09:48;1043.8;;;16.5;43.1
76044;BME280;64740;34.694;33.088;2024-02-04T23:14:38;1043.8;;;16.5;42.8
76044;BME280;64740;34.694;33.088;2024-02-04T23:19:22;1043.9;;;16.5;42.7
76044;BME280;64740;34.694;33.088;2024-02-04T23:24:48;1043.8;;;16.5;42.5
76044;BME280;64740;34.694;33.088;2024-02-04T23:29:40;1043.7;;;16.6;42.3
76044;BME280;64740;34.694;33.088;2024-02-04T23:34:38;1043.7;;;16.6;42.3
76044;BME280;64740;34.694;33.088;2024-02-04T23:39:08;1043.7;;;16.6;42.3
76044;BME280;64740;34.694;33.088;2024-02-04T23:44:34;1043.7;;;16.6;42.2
76044;BME280;64740;34.694;33.088;2024-02-04T23:49:10;1043.6;;;16.6;42.4
76044;BME280;64740;34.694;33.088;2024-02-04T23:54:48;1043.6;;;16.6;42.3
76044;BME280;64740;34.694;33.088;2024-02-04T23:59:08;1043.5;;;16.7;42.5
